Time;durP1;ratioP1;P1;durP2;ratioP2;P2;SDS_P1;SDS_P2;PMS_P1;PMS_P2;Temp;Humidity;BMP_temperature;BMP_pressure;BME280_temperature;BME280_humidity;BME280_pressure;Samples;Min_cycle;Max_cycle;Signal;HPM_P1;HPM_P2
2024/01/30 00:01:25;;;;;;;227.30;91.50;;;;;;;;;;7326008;19;20414;-23
2024/01/30 00:03:55;;;;;;;184.73;76.67;;;;;;;;;;7347895;19;20392;-26
2024/01/30 00:06:24;;;;;;;181.53;72.80;;;;;;;;;;7336670;19;20427;-24
2024/01/30 00:08:53;;;;;;;162.27;67.30;;;;;;;;;;7347852;19;20407;-23
2024/01/30 00:11:25;;;;;;;154.63;63.00;;;;;;;;;;7348429;19;20399;-26
2024/01/30 00:13:57;;;;;;;143.30;56.03;;;;;;;;;;7326287;19;20398;-25
2024/01/30 00:16:27;;;;;;;134.27;54.50;;;;;;;;;;7326425;19;20438;-23
2024/01/30 00:18:57;;;;;;;117.43;49.93;;;;;;;;;;7347868;19;20483;-24
2024/01/30 00:21:27;;;;;;;113.07;46.70;;;;;;;;;;7328607;19;20410;-22
2024/01/30 00:23:57;;;;;;;114.40;49.47;;;;;;;;;;7349172;19;20445;-22
2024/01/30 00:26:26;;;;;;;116.33;49.57;;;;;;;;;;7325982;19;20956;-25
2024/01/30 00:28:58;;;;;;;969.93;504.53;;;;;;;;;;7347972;19;20405;-22
2024/01/30 00:31:28;;;;;;;879.57;492.20;;;;;;;;;;7325276;19;20411;-23
2024/01/30 00:33:57;;;;;;;603.10;304.17;;;;;;;;;;7344838;19;20426;-23
2024/01/30 00:36:29;;;;;;;576.00;285.40;;;;;;;;;;7173080;19;2956630;-21
2024/01/30 00:38:59;;;;;;;519.87;244.87;;;;;;;;;;7345982;19;20198;-21
2024/01/30 00:41:28;;;;;;;529.93;252.77;;;;;;;;;;7322512;19;21131;-23
2024/01/30 00:44:00;;;;;;;507.87;240.63;;;;;;;;;;7346330;19;20464;-22
2024/01/30 00:46:29;;;;;;;503.67;231.43;;;;;;;;;;7324046;19;20407;-22
2024/01/30 00:48:59;;;;;;;506.37;238.40;;;;;;;;;;7346623;19;20404;-22
2024/01/30 00:51:29;;;;;;;497.57;230.27;;;;;;;;;;7324635;19;20450;-21
2024/01/30 00:53:59;;;;;;;498.43;226.77;;;;;;;;;;7346898;19;20399;-26
2024/01/30 00:56:28;;;;;;;487.33;218.07;;;;;;;;;;7324186;19;20483;-24
2024/01/30 00:59:00;;;;;;;463.13;210.10;;;;;;;;;;7345084;19;20403;-20
2024/01/30 01:01:30;;;;;;;466.83;212.80;;;;;;;;;;7325463;19;20422;-23
2024/01/30 01:03:59;;;;;;;476.47;208.67;;;;;;;;;;7345613;19;20489;-21
2024/01/30 01:06:29;;;;;;;468.43;206.97;;;;;;;;;;7323497;19;20410;-21
2024/01/30 01:08:58;;;;;;;455.30;198.80;;;;;;;;;;7347239;19;20763;-23
2024/01/30 01:11:32;;;;;;;571.47;295.07;;;;;;;;;;7325663;19;20426;-22
2024/01/30 01:14:04;;;;;;;696.70;382.47;;;;;;;;;;7346934;19;20425;-22
2024/01/30 01:16:33;;;;;;;667.10;373.17;;;;;;;;;;7323525;19;20439;-22
2024/01/30 01:19:03;;;;;;;636.97;346.27;;;;;;;;;;7346709;19;20415;-20
2024/01/30 01:21:33;;;;;;;607.60;322.33;;;;;;;;;;7325801;19;20440;-22
2024/01/30 01:24:02;;;;;;;600.80;318.90;;;;;;;;;;7342953;19;20935;-20
2024/01/30 01:26:31;;;;;;;597.23;321.17;;;;;;;;;;7325181;19;21037;-25
2024/01/30 01:29:09;;;;;;;594.90;316.97;;;;;;;;;;7344456;19;20433;-26
2024/01/30 01:31:43;;;;;;;581.47;312.43;;;;;;;;;;7326584;19;20457;-22
2024/01/30 01:34:13;;;;;;;582.63;308.87;;;;;;;;;;7345795;19;20399;-22
2024/01/30 01:36:42;;;;;;;580.50;309.07;;;;;;;;;;7321826;19;20436;-21
2024/01/30 01:39:12;;;;;;;567.27;301.60;;;;;;;;;;7345794;19;20419;-24
2024/01/30 01:41:41;;;;;;;564.10;299.67;;;;;;;;;;7322963;19;20411;-21
2024/01/30 01:44:13;;;;;;;567.37;298.87;;;;;;;;;;7345363;19;20431;-23
2024/01/30 01:46:43;;;;;;;567.40;295.40;;;;;;;;;;7323856;19;20478;-22
2024/01/30 01:49:13;;;;;;;551.40;289.33;;;;;;;;;;7345705;19;20405;-22
2024/01/30 01:51:44;;;;;;;545.30;283.23;;;;;;;;;;7322987;19;20471;-22
2024/01/30 01:54:14;;;;;;;539.87;284.03;;;;;;;;;;7345293;19;20787;-22
2024/01/30 01:56:44;;;;;;;541.93;275.47;;;;;;;;;;7322984;19;20389;-21
2024/01/30 01:59:17;;;;;;;538.37;279.70;;;;;;;;;;7345952;19;20830;-24
2024/01/30 02:01:49;;;;;;;539.03;278.47;;;;;;;;;;7323305;19;20485;-21
2024/01/30 02:04:18;;;;;;;527.10;273.57;;;;;;;;;;7345539;19;20399;-21
2024/01/30 02:06:48;;;;;;;534.67;275.47;;;;;;;;;;7320315;19;20795;-21
2024/01/30 02:09:18;;;;;;;522.77;265.40;;;;;;;;;;7345151;19;20415;-20
2024/01/30 02:11:47;;;;;;;522.73;267.27;;;;;;;;;;7320942;19;20399;-23
2024/01/30 02:14:20;;;;;;;522.50;267.77;;;;;;;;;;7344680;19;20958;-21
2024/01/30 02:16:49;;;;;;;504.57;252.40;;;;;;;;;;7324059;19;20464;-22
2024/01/30 02:19:19;;;;;;;493.90;249.97;;;;;;;;;;7344539;19;20506;-21
2024/01/30 02:21:52;;;;;;;486.53;237.73;;;;;;;;;;7347122;19;20423;-22
2024/01/30 02:24:21;;;;;;;453.40;211.43;;;;;;;;;;7322626;19;20426;-23
2024/01/30 02:26:51;;;;;;;410.47;177.47;;;;;;;;;;7344568;19;20503;-23
2024/01/30 02:29:20;;;;;;;394.33;176.50;;;;;;;;;;7316232;19;20423;-23
2024/01/30 02:31:50;;;;;;;749.03;427.43;;;;;;;;;;7366799;19;20470;-24
2024/01/30 02:34:19;;;;;;;717.80;411.20;;;;;;;;;;7323620;19;20430;-22
2024/01/30 02:36:51;;;;;;;610.27;332.33;;;;;;;;;;7366959;19;20959;-21
2024/01/30 02:39:21;;;;;;;496.57;236.40;;;;;;;;;;7345146;19;20449;-22
2024/01/30 02:41:50;;;;;;;439.10;203.53;;;;;;;;;;7316887;19;20494;-22
2024/01/30 02:44:20;;;;;;;608.40;321.67;;;;;;;;;;7344559;19;20419;-23
2024/01/30 02:46:50;;;;;;;637.03;351.27;;;;;;;;;;7317845;19;20509;-20
2024/01/30 02:49:19;;;;;;;664.37;380.57;;;;;;;;;;7343030;19;20439;-46
2024/01/30 02:51:52;;;;;;;639.07;352.23;;;;;;;;;;7321363;19;20998;-46
2024/01/30 02:54:21;;;;;;;460.87;217.83;;;;;;;;;;7342934;19;20474;-47
2024/01/30 02:56:51;;;;;;;479.80;230.73;;;;;;;;;;7312903;19;20542;-29
2024/01/30 02:59:20;;;;;;;403.13;176.57;;;;;;;;;;7341759;19;20414;-29
2024/01/30 03:01:49;;;;;;;375.37;163.83;;;;;;;;;;7320020;19;20781;-30
2024/01/30 03:04:19;;;;;;;333.93;138.83;;;;;;;;;;7346701;19;20403;-29
2024/01/30 03:06:51;;;;;;;281.37;120.97;;;;;;;;;;7319911;19;20463;-29
2024/01/30 03:09:21;;;;;;;239.70;103.00;;;;;;;;;;7349363;19;20413;-29
2024/01/30 03:11:50;;;;;;;226.47;96.53;;;;;;;;;;7327824;19;20436;-29
2024/01/30 03:14:20;;;;;;;195.97;84.13;;;;;;;;;;7349644;19;20403;-29
2024/01/30 03:16:49;;;;;;;169.17;72.80;;;;;;;;;;7326327;19;20467;-28
2024/01/30 03:19:18;;;;;;;148.90;64.97;;;;;;;;;;7348269;19;20772;-28
2024/01/30 03:21:48;;;;;;;136.47;59.20;;;;;;;;;;7325953;19;20418;-29
2024/01/30 03:24:20;;;;;;;124.30;53.90;;;;;;;;;;7349231;19;20403;-29
2024/01/30 03:26:49;;;;;;;111.63;50.77;;;;;;;;;;7325757;19;20553;-29
2024/01/30 03:29:19;;;;;;;95.13;44.13;;;;;;;;;;7350747;19;21289;-29
2024/01/30 03:31:48;;;;;;;96.90;44.17;;;;;;;;;;7326519;19;20423;-29
2024/01/30 03:34:17;;;;;;;83.30;39.67;;;;;;;;;;7349091;19;20407;-28
2024/01/30 03:36:47;;;;;;;76.23;34.70;;;;;;;;;;7322905;19;20483;-29
2024/01/30 03:39:16;;;;;;;61.00;30.90;;;;;;;;;;7348166;19;20813;-29
2024/01/30 03:41:48;;;;;;;62.93;30.50;;;;;;;;;;7325786;19;20506;-28
2024/01/30 03:44:18;;;;;;;57.57;26.37;;;;;;;;;;7349148;19;20407;-28
2024/01/30 03:46:48;;;;;;;50.73;24.70;;;;;;;;;;7326528;19;20872;-29
2024/01/30 03:49:17;;;;;;;52.07;25.40;;;;;;;;;;7348546;19;20947;-29
2024/01/30 03:51:47;;;;;;;43.63;22.20;;;;;;;;;;7326356;19;20423;-28
2024/01/30 03:54:17;;;;;;;42.70;21.37;;;;;;;;;;7348779;19;20403;-28
2024/01/30 03:56:49;;;;;;;38.20;19.23;;;;;;;;;;7325116;19;20467;-28
2024/01/30 03:59:23;;;;;;;31.50;16.90;;;;;;;;;;7349955;19;20481;-29
2024/01/30 04:01:53;;;;;;;37.57;17.60;;;;;;;;;;7325739;19;20530;-28
2024/01/30 04:04:23;;;;;;;31.00;15.60;;;;;;;;;;7349211;19;20405;-29
2024/01/30 04:06:52;;;;;;;29.07;15.67;;;;;;;;;;7324004;19;20424;-28
2024/01/30 04:09:22;;;;;;;32.80;16.40;;;;;;;;;;7348929;19;20407;-28
2024/01/30 04:11:54;;;;;;;27.00;15.70;;;;;;;;;;7325618;19;20986;-29
2024/01/30 04:14:23;;;;;;;24.80;13.87;;;;;;;;;;7348345;19;20399;-29
2024/01/30 04:16:53;;;;;;;26.77;14.17;;;;;;;;;;7325152;19;20388;-30
2024/01/30 04:19:22;;;;;;;26.00;14.17;;;;;;;;;;7348085;19;20429;-28
2024/01/30 04:21:52;;;;;;;24.50;14.50;;;;;;;;;;7324967;19;20388;-29
2024/01/30 04:24:21;;;;;;;20.40;12.23;;;;;;;;;;7346833;19;20767;-29
2024/01/30 04:26:50;;;;;;;22.90;13.13;;;;;;;;;;7324664;19;20459;-29
2024/01/30 04:29:23;;;;;;;20.67;11.37;;;;;;;;;;7348534;19;20522;-29
2024/01/30 04:31:52;;;;;;;20.37;11.40;;;;;;;;;;7325838;19;20396;-29
2024/01/30 04:34:21;;;;;;;18.90;11.70;;;;;;;;;;7347743;19;20400;-29
2024/01/30 04:36:51;;;;;;;21.03;11.70;;;;;;;;;;7319821;19;21025;-31
2024/01/30 04:39:20;;;;;;;20.57;11.57;;;;;;;;;;7347027;19;21042;-30
2024/01/30 04:41:50;;;;;;;20.13;11.50;;;;;;;;;;7325340;19;20486;-30
2024/01/30 04:44:19;;;;;;;16.90;10.60;;;;;;;;;;7348162;19;20458;-29
2024/01/30 04:46:51;;;;;;;18.00;10.63;;;;;;;;;;7323301;19;20471;-29
2024/01/30 04:49:20;;;;;;;18.30;10.70;;;;;;;;;;7347927;19;20771;-30
2024/01/30 04:51:50;;;;;;;17.67;10.83;;;;;;;;;;7325050;19;20430;-28
2024/01/30 04:54:19;;;;;;;17.60;9.90;;;;;;;;;;7347348;19;20403;-29
2024/01/30 04:56:49;;;;;;;19.07;11.27;;;;;;;;;;7323327;19;20879;-30
2024/01/30 04:59:18;;;;;;;15.60;9.27;;;;;;;;;;7347195;19;20495;-29
2024/01/30 05:01:48;;;;;;;16.60;10.00;;;;;;;;;;7323094;19;20506;-30
2024/01/30 05:04:20;;;;;;;18.03;10.87;;;;;;;;;;7346697;19;20426;-30
2024/01/30 05:06:50;;;;;;;17.70;11.07;;;;;;;;;;7323924;19;20496;-29
2024/01/30 05:09:19;;;;;;;16.00;10.00;;;;;;;;;;7346835;19;20988;-29
2024/01/30 05:11:48;;;;;;;16.33;9.90;;;;;;;;;;7323850;19;20494;-29
2024/01/30 05:14:18;;;;;;;15.00;9.90;;;;;;;;;;7346994;19;20395;-30
2024/01/30 05:16:47;;;;;;;16.23;9.97;;;;;;;;;;7323372;19;20474;-30
2024/01/30 05:19:17;;;;;;;19.07;10.20;;;;;;;;;;7346259;19;20430;-29
2024/01/30 05:21:49;;;;;;;15.77;9.80;;;;;;;;;;7322933;19;20989;-30
2024/01/30 05:24:18;;;;;;;20.00;10.20;;;;;;;;;;7347188;19;20750;-28
2024/01/30 05:26:51;;;;;;;14.03;9.00;;;;;;;;;;7321570;19;20488;-29
2024/01/30 05:29:20;;;;;;;16.57;10.03;;;;;;;;;;7346599;19;20406;-29
2024/01/30 05:31:49;;;;;;;18.63;10.13;;;;;;;;;;7323606;19;20423;-29
2024/01/30 05:34:19;;;;;;;18.27;9.80;;;;;;;;;;7346291;19;20494;-29
2024/01/30 05:36:51;;;;;;;17.73;10.00;;;;;;;;;;7321134;19;20511;-29
2024/01/30 05:39:20;;;;;;;15.60;9.37;;;;;;;;;;7346348;19;20424;-30
2024/01/30 05:41:50;;;;;;;18.07;10.40;;;;;;;;;;7322781;19;20512;-29
2024/01/30 05:44:19;;;;;;;18.20;10.37;;;;;;;;;;7345831;19;20415;-28
2024/01/30 05:46:48;;;;;;;15.77;8.90;;;;;;;;;;7321976;19;20463;-28
2024/01/30 05:49:18;;;;;;;15.23;9.73;;;;;;;;;;7345489;19;20482;-30
2024/01/30 05:51:47;;;;;;;20.50;10.63;;;;;;;;;;7322761;19;21066;-29
2024/01/30 05:54:20;;;;;;;19.87;10.90;;;;;;;;;;7345553;19;20494;-30
2024/01/30 05:56:49;;;;;;;17.60;10.00;;;;;;;;;;7321625;19;20463;-29
2024/01/30 05:59:18;;;;;;;17.07;10.10;;;;;;;;;;7345571;19;20442;-29
2024/01/30 06:01:48;;;;;;;18.53;10.63;;;;;;;;;;7322590;19;20470;-29
2024/01/30 06:04:18;;;;;;;19.13;10.13;;;;;;;;;;7345544;19;20403;-30
2024/01/30 06:06:47;;;;;;;16.93;10.33;;;;;;;;;;7321501;19;20487;-30
2024/01/30 06:09:19;;;;;;;18.30;10.33;;;;;;;;;;7344820;19;20395;-30
2024/01/30 06:11:49;;;;;;;18.10;9.70;;;;;;;;;;7322644;19;20419;-30
2024/01/30 06:14:18;;;;;;;24.90;11.27;;;;;;;;;;7344763;19;20403;-29
2024/01/30 06:16:48;;;;;;;19.20;11.93;;;;;;;;;;7321329;19;20455;-29
2024/01/30 06:19:17;;;;;;;18.33;10.87;;;;;;;;;;7344487;19;20817;-28
2024/01/30 06:21:46;;;;;;;16.40;10.60;;;;;;;;;;7321326;19;20510;-30
2024/01/30 06:24:16;;;;;;;18.40;10.70;;;;;;;;;;7344552;19;20511;-29
2024/01/30 06:26:48;;;;;;;17.20;10.63;;;;;;;;;;7321619;19;20651;-29
2024/01/30 06:29:18;;;;;;;20.23;11.40;;;;;;;;;;7344493;19;21235;-30
2024/01/30 06:31:48;;;;;;;15.83;10.10;;;;;;;;;;7320922;19;20518;-28
2024/01/30 06:34:18;;;;;;;47.67;23.47;;;;;;;;;;7340927;19;20525;-27
2024/01/30 06:36:47;;;;;;;996.77;587.20;;;;;;;;;;7319379;19;20483;-29
2024/01/30 06:39:17;;;;;;;637.63;349.97;;;;;;;;;;7343142;19;20503;-28
2024/01/30 06:41:49;;;;;;;469.23;218.93;;;;;;;;;;7330467;19;20499;-28
2024/01/30 06:44:18;;;;;;;478.53;217.97;;;;;;;;;;7352079;19;20403;-29
2024/01/30 06:46:48;;;;;;;448.10;194.73;;;;;;;;;;7328351;19;20470;-29
2024/01/30 06:49:17;;;;;;;433.90;187.03;;;;;;;;;;7348646;19;20407;-28
2024/01/30 06:51:46;;;;;;;434.17;185.97;;;;;;;;;;7328171;19;20493;-28
2024/01/30 06:54:16;;;;;;;411.40;171.37;;;;;;;;;;7350351;19;20990;-31
2024/01/30 06:56:45;;;;;;;387.97;162.23;;;;;;;;;;7327483;19;20589;-29
2024/01/30 06:59:17;;;;;;;388.73;159.90;;;;;;;;;;7350762;19;20407;-28
2024/01/30 07:01:47;;;;;;;360.77;153.27;;;;;;;;;;7327966;19;20773;-29
2024/01/30 07:04:16;;;;;;;356.80;150.00;;;;;;;;;;7349485;19;20423;-29
2024/01/30 07:06:46;;;;;;;359.50;147.77;;;;;;;;;;7326455;19;21165;-28
2024/01/30 07:09:16;;;;;;;343.87;145.90;;;;;;;;;;7349900;19;20407;-29
2024/01/30 07:11:45;;;;;;;334.87;145.07;;;;;;;;;;7327850;19;20505;-29
2024/01/30 07:14:17;;;;;;;347.77;143.53;;;;;;;;;;7348520;19;20422;-28
2024/01/30 07:16:47;;;;;;;332.20;142.93;;;;;;;;;;7325117;19;20551;-28
2024/01/30 07:19:16;;;;;;;327.37;141.80;;;;;;;;;;7345584;19;20431;-28
2024/01/30 07:21:46;;;;;;;317.30;139.57;;;;;;;;;;7326403;19;20426;-29
2024/01/30 07:24:15;;;;;;;591.33;335.13;;;;;;;;;;7350545;19;20426;-29
2024/01/30 07:26:44;;;;;;;710.57;415.80;;;;;;;;;;7326468;19;20470;-30
2024/01/30 07:29:16;;;;;;;578.13;302.57;;;;;;;;;;7350455;19;20747;-29
2024/01/30 07:31:46;;;;;;;415.13;181.40;;;;;;;;;;7327598;19;20518;-29
2024/01/30 07:34:15;;;;;;;394.20;165.10;;;;;;;;;;7349164;19;20973;-28
2024/01/30 07:36:46;;;;;;;330.83;144.20;;;;;;;;;;7324943;19;21049;-29
2024/01/30 07:39:15;;;;;;;294.47;125.70;;;;;;;;;;7349853;19;20413;-28
2024/01/30 07:41:44;;;;;;;486.73;233.50;;;;;;;;;;7327928;19;20423;-29
2024/01/30 07:44:16;;;;;;;713.53;381.57;;;;;;;;;;7349911;19;20435;-30
2024/01/30 07:46:46;;;;;;;657.17;329.30;;;;;;;;;;7325181;19;20891;-29
2024/01/30 07:49:15;;;;;;;465.03;203.30;;;;;;;;;;7350365;19;21051;-29
2024/01/30 07:51:46;;;;;;;385.30;157.73;;;;;;;;;;7325786;19;20416;-29
2024/01/30 07:54:15;;;;;;;364.23;148.40;;;;;;;;;;7349135;19;20424;-30
2024/01/30 07:56:45;;;;;;;361.47;146.13;;;;;;;;;;7325511;19;20610;-29
2024/01/30 07:59:17;;;;;;;306.40;121.07;;;;;;;;;;7348864;19;20953;-30
2024/01/30 08:01:46;;;;;;;288.63;118.67;;;;;;;;;;7325774;19;20435;-30
2024/01/30 08:04:15;;;;;;;235.83;99.20;;;;;;;;;;7347889;19;20399;-30
2024/01/30 08:06:45;;;;;;;231.57;89.30;;;;;;;;;;7325195;19;20489;-29
2024/01/30 10:01:30;;;;;;;448.83;237.30;;;;;;;;;;7357725;19;20695;-24
2024/01/30 10:04:16;;;;;;;452.17;236.37;;;;;;;;;;7377888;19;20460;-24
2024/01/30 10:06:46;;;;;;;469.40;253.60;;;;;;;;;;7358195;19;20504;-23
2024/01/30 10:09:16;;;;;;;463.40;245.40;;;;;;;;;;7380797;19;20390;-22
2024/01/30 10:11:45;;;;;;;668.03;439.53;;;;;;;;;;7359031;19;20966;-23
2024/01/30 10:14:14;;;;;;;568.43;350.03;;;;;;;;;;7380124;19;20761;-23
2024/01/30 10:16:45;;;;;;;572.47;357.10;;;;;;;;;;7358438;19;20426;-22
2024/01/30 10:19:18;;;;;;;742.20;493.27;;;;;;;;;;7380280;19;20398;-23
2024/01/30 10:21:48;;;;;;;596.60;374.60;;;;;;;;;;7357452;19;20513;-23
2024/01/30 10:24:15;;;;;;;587.73;356.73;;;;;;;;;;7380046;19;20398;-22
2024/01/30 10:26:46;;;;;;;567.60;344.67;;;;;;;;;;7357933;19;20439;-23
2024/01/30 10:29:15;;;;;;;741.23;491.80;;;;;;;;;;7380380;19;20405;-26
2024/01/30 10:31:45;;;;;;;1014.87;679.27;;;;;;;;;;7358312;19;20430;-26
2024/01/30 10:34:14;;;;;;;735.67;482.97;;;;;;;;;;7378231;19;20696;-22
2024/01/30 10:36:58;;;;;;;694.67;444.93;;;;;;;;;;7356206;19;20439;-23
2024/01/30 10:39:31;;;;;;;732.27;485.23;;;;;;;;;;7381197;19;20486;-22
2024/01/30 10:42:05;;;;;;;690.87;444.13;;;;;;;;;;7359840;19;20402;-23
2024/01/30 10:44:39;;;;;;;825.80;570.20;;;;;;;;;;7365647;19;20481;-25
2024/01/30 10:47:09;;;;;;;715.90;480.00;;;;;;;;;;7380482;19;20397;-23
2024/01/30 10:49:39;;;;;;;703.10;458.13;;;;;;;;;;7356204;19;20455;-27
2024/01/30 10:52:12;;;;;;;688.73;452.90;;;;;;;;;;7379903;19;20474;-25
2024/01/30 10:54:43;;;;;;;698.20;460.77;;;;;;;;;;7357502;19;20493;-23
2024/01/30 10:57:12;;;;;;;695.87;458.63;;;;;;;;;;7378318;19;20394;-26
2024/01/30 10:59:43;;;;;;;671.20;443.87;;;;;;;;;;7355023;19;20454;-23
2024/01/30 11:02:13;;;;;;;662.13;428.80;;;;;;;;;;7380262;19;20884;-23
2024/01/30 11:04:44;;;;;;;661.67;422.07;;;;;;;;;;7357557;19;20446;-24
2024/01/30 11:07:20;;;;;;;649.63;419.17;;;;;;;;;;7379293;19;20394;-22
2024/01/30 11:09:53;;;;;;;647.80;413.40;;;;;;;;;;7355540;19;20449;-23
2024/01/30 11:12:26;;;;;;;637.13;417.37;;;;;;;;;;7379894;19;20490;-26
2024/01/30 11:15:05;;;;;;;623.00;400.37;;;;;;;;;;7335844;19;21031;-22
2024/01/30 11:17:47;;;;;;;630.33;397.57;;;;;;;;;;7336628;19;20778;-23
2024/01/30 11:20:19;;;;;;;626.13;391.40;;;;;;;;;;7349854;19;20415;-23
2024/01/30 11:22:53;;;;;;;624.27;398.97;;;;;;;;;;7326662;19;20460;-23
2024/01/30 11:25:23;;;;;;;598.10;380.33;;;;;;;;;;7348798;19;20435;-23
2024/01/30 11:27:53;;;;;;;680.13;443.30;;;;;;;;;;7323158;19;20774;-23
2024/01/30 11:30:24;;;;;;;777.63;502.40;;;;;;;;;;7349287;19;20403;-23
2024/01/30 11:33:04;;;;;;;666.60;415.03;;;;;;;;;;7328850;19;21842;-25
2024/01/30 11:35:35;;;;;;;857.63;579.23;;;;;;;;;;7341252;19;20500;-22
2024/01/30 11:38:07;;;;;;;868.73;578.63;;;;;;;;;;7349188;19;20407;-22
2024/01/30 11:40:37;;;;;;;692.20;448.33;;;;;;;;;;7328563;19;20435;-25
2024/01/30 11:43:08;;;;;;;670.20;432.07;;;;;;;;;;7350124;19;20419;-25
2024/01/30 11:45:39;;;;;;;662.43;428.73;;;;;;;;;;7327876;19;20538;-23
2024/01/30 11:48:10;;;;;;;652.00;423.37;;;;;;;;;;7349720;19;20411;-23
2024/01/30 11:50:40;;;;;;;657.73;419.53;;;;;;;;;;7327614;19;20438;-25
2024/01/30 11:53:13;;;;;;;637.87;408.63;;;;;;;;;;7349728;19;20946;-24
2024/01/30 11:55:43;;;;;;;659.03;418.60;;;;;;;;;;7327799;19;20433;-23
2024/01/30 11:58:12;;;;;;;714.00;475.93;;;;;;;;;;7349601;19;20453;-24
2024/01/30 12:00:41;;;;;;;650.17;420.33;;;;;;;;;;7325363;19;20812;-22
2024/01/30 12:03:13;;;;;;;642.90;409.93;;;;;;;;;;7345768;19;20975;-22
2024/01/30 12:05:44;;;;;;;713.57;482.50;;;;;;;;;;7328592;19;20503;-24
2024/01/30 12:08:19;;;;;;;675.33;453.97;;;;;;;;;;7348674;19;20399;-23
2024/01/30 12:10:57;;;;;;;684.47;449.67;;;;;;;;;;7325768;19;20451;-23
2024/01/30 12:13:27;;;;;;;737.23;501.30;;;;;;;;;;7349663;19;20783;-23
2024/01/30 12:16:01;;;;;;;963.70;664.37;;;;;;;;;;7328025;19;20946;-23
2024/01/30 12:18:31;;;;;;;995.10;678.83;;;;;;;;;;7350478;19;20538;-23
2024/01/30 12:21:01;;;;;;;726.67;484.83;;;;;;;;;;7327166;19;20410;-24
2024/01/30 12:23:34;;;;;;;653.80;425.87;;;;;;;;;;7348723;19;20993;-23
2024/01/30 12:26:06;;;;;;;636.17;400.20;;;;;;;;;;7325439;19;20393;-23
2024/01/30 12:28:36;;;;;;;794.43;548.27;;;;;;;;;;7324120;19;20427;-23
2024/01/30 12:31:06;;;;;;;870.33;588.67;;;;;;;;;;7348028;19;20403;-25
2024/01/30 12:33:38;;;;;;;770.17;494.57;;;;;;;;;;7323795;19;20431;-23
2024/01/30 12:36:08;;;;;;;598.00;365.37;;;;;;;;;;7348044;19;20410;-23
2024/01/30 12:38:41;;;;;;;533.67;320.67;;;;;;;;;;7325327;19;20431;-23
2024/01/30 12:41:11;;;;;;;528.10;303.70;;;;;;;;;;7348480;19;20399;-25
2024/01/30 12:43:40;;;;;;;501.87;286.13;;;;;;;;;;7325501;19;20789;-24
2024/01/30 12:46:10;;;;;;;462.53;245.77;;;;;;;;;;7347486;19;20408;-23
2024/01/30 12:48:39;;;;;;;433.77;224.23;;;;;;;;;;7326615;19;20815;-24
2024/01/30 12:51:09;;;;;;;399.77;202.57;;;;;;;;;;7347504;19;20427;-24
2024/01/30 12:53:41;;;;;;;393.90;192.13;;;;;;;;;;7322235;19;20451;-23
2024/01/30 12:56:11;;;;;;;366.30;182.43;;;;;;;;;;7348462;19;20395;-25
2024/01/30 12:58:41;;;;;;;330.87;165.37;;;;;;;;;;7325502;19;20549;-22
2024/01/30 13:01:10;;;;;;;288.67;145.70;;;;;;;;;;7345357;19;20504;-23
2024/01/30 13:03:40;;;;;;;326.23;159.13;;;;;;;;;;7324024;19;20427;-23
2024/01/30 13:06:09;;;;;;;285.60;141.40;;;;;;;;;;7348199;19;20438;-26
2024/01/30 13:08:41;;;;;;;269.33;133.33;;;;;;;;;;7324575;19;20438;-24
2024/01/30 13:11:12;;;;;;;232.47;114.23;;;;;;;;;;7346910;19;20468;-21
2024/01/30 13:13:49;;;;;;;241.53;116.00;;;;;;;;;;7324227;19;20429;-27
2024/01/30 13:16:19;;;;;;;214.17;105.80;;;;;;;;;;7347517;19;20403;-24
2024/01/30 13:18:48;;;;;;;206.13;98.10;;;;;;;;;;7325416;19;20420;-22
2024/01/30 13:21:18;;;;;;;184.03;90.67;;;;;;;;;;7347470;19;20418;-23
2024/01/30 13:23:53;;;;;;;171.80;85.43;;;;;;;;;;7325079;19;20430;-24
2024/01/30 13:26:22;;;;;;;161.83;76.87;;;;;;;;;;7348838;19;20405;-25
2024/01/30 13:28:52;;;;;;;142.80;65.50;;;;;;;;;;7324528;19;20433;-23
2024/01/30 13:31:21;;;;;;;137.83;64.77;;;;;;;;;;7346859;19;20402;-23
2024/01/30 13:33:51;;;;;;;131.97;62.97;;;;;;;;;;7323304;19;20429;-23
2024/01/30 13:36:20;;;;;;;109.50;54.03;;;;;;;;;;7346879;19;20405;-23
2024/01/30 13:38:52;;;;;;;123.60;58.87;;;;;;;;;;7321086;19;20782;-25
2024/01/30 13:41:22;;;;;;;237.00;104.00;;;;;;;;;;7345245;19;21020;-23
2024/01/30 13:43:52;;;;;;;356.90;157.27;;;;;;;;;;7323727;19;20419;-24
2024/01/30 13:46:18;;;;;;;256.93;122.83;;;;;;;;;;7346597;19;20413;-25
2024/01/30 13:48:48;;;;;;;161.40;75.30;;;;;;;;;;7325111;19;20439;-21
2024/01/30 13:51:18;;;;;;;132.87;62.20;;;;;;;;;;7346090;19;20418;-23
2024/01/30 13:53:47;;;;;;;123.63;58.37;;;;;;;;;;7323663;19;20426;-25
2024/01/30 13:56:19;;;;;;;118.13;56.97;;;;;;;;;;7345998;19;20405;-24
2024/01/30 13:58:50;;;;;;;108.03;52.93;;;;;;;;;;7322677;19;20430;-24
2024/01/30 14:01:19;;;;;;;97.23;48.90;;;;;;;;;;7346327;19;20401;-22
2024/01/30 14:03:49;;;;;;;107.37;48.23;;;;;;;;;;7322905;19;20440;-22
2024/01/30 14:06:18;;;;;;;83.67;41.20;;;;;;;;;;7340613;19;20794;-27
2024/01/30 14:08:48;;;;;;;83.03;40.97;;;;;;;;;;7323794;19;20440;-27
2024/01/30 14:11:20;;;;;;;122.90;63.43;;;;;;;;;;7343512;19;20426;-25
2024/01/30 14:13:50;;;;;;;539.70;302.50;;;;;;;;;;7318747;19;20433;-22
2024/01/30 14:16:19;;;;;;;559.67;302.07;;;;;;;;;;7344413;19;20420;-23
2024/01/30 14:18:49;;;;;;;357.40;161.50;;;;;;;;;;7322199;19;20449;-22
2024/01/30 14:21:18;;;;;;;225.37;100.07;;;;;;;;;;7341514;19;21052;-23
2024/01/30 14:23:47;;;;;;;532.67;292.40;;;;;;;;;;7322089;19;20511;-23
2024/01/30 14:26:18;;;;;;;524.87;290.27;;;;;;;;;;7345498;19;20755;-23
2024/01/30 14:28:50;;;;;;;485.57;249.53;;;;;;;;;;7321937;19;20803;-25
2024/01/30 14:31:20;;;;;;;374.57;168.67;;;;;;;;;;7345422;19;20448;-23
2024/01/30 14:33:50;;;;;;;274.30;124.10;;;;;;;;;;7321043;19;20426;-22
2024/01/30 14:36:20;;;;;;;289.63;131.87;;;;;;;;;;7343571;19;20476;-26
2024/01/30 14:38:50;;;;;;;248.57;115.60;;;;;;;;;;7318603;19;20498;-25
2024/01/30 14:41:19;;;;;;;261.37;118.87;;;;;;;;;;7344628;19;20407;-25
2024/01/30 14:43:52;;;;;;;233.67;110.70;;;;;;;;;;7320170;19;20502;-23
2024/01/30 14:46:21;;;;;;;229.87;107.73;;;;;;;;;;7340207;19;20806;-27
2024/01/30 14:48:51;;;;;;;707.80;415.23;;;;;;;;;;7322049;19;20435;-24
2024/01/30 14:51:21;;;;;;;732.67;449.83;;;;;;;;;;7351407;19;20409;-23
2024/01/30 14:53:51;;;;;;;512.47;265.00;;;;;;;;;;7325439;19;20865;-22
2024/01/30 14:56:20;;;;;;;463.90;228.73;;;;;;;;;;7352258;19;20441;-22
2024/01/30 14:58:53;;;;;;;465.27;236.67;;;;;;;;;;7328927;19;20438;-23
2024/01/30 15:01:22;;;;;;;434.67;215.70;;;;;;;;;;7346749;19;20419;-23
2024/01/30 15:03:52;;;;;;;443.83;212.40;;;;;;;;;;7329480;19;20422;-26
2024/01/30 15:06:23;;;;;;;477.70;256.47;;;;;;;;;;7348741;19;20969;-24
2024/01/30 15:08:53;;;;;;;638.23;396.50;;;;;;;;;;7329517;19;20438;-26
2024/01/30 15:11:22;;;;;;;674.03;419.13;;;;;;;;;;7351413;19;20409;-23
2024/01/30 15:13:54;;;;;;;649.63;403.60;;;;;;;;;;7327776;19;20427;-25
2024/01/30 15:16:24;;;;;;;544.77;308.60;;;;;;;;;;7346962;19;20530;-23
2024/01/30 15:18:53;;;;;;;541.97;317.30;;;;;;;;;;7328970;19;20426;-24
2024/01/30 15:21:23;;;;;;;555.73;326.13;;;;;;;;;;7350795;19;20953;-24
2024/01/30 15:23:54;;;;;;;556.37;325.07;;;;;;;;;;7328081;19;20391;-28
2024/01/30 15:26:24;;;;;;;566.07;326.57;;;;;;;;;;7350253;19;20443;-25
2024/01/30 15:28:56;;;;;;;552.20;321.37;;;;;;;;;;7328111;19;20479;-22
2024/01/30 15:31:25;;;;;;;548.23;319.83;;;;;;;;;;7350791;19;20534;-22
2024/01/30 15:33:57;;;;;;;543.73;309.93;;;;;;;;;;7327939;19;20753;-23
2024/01/30 15:36:26;;;;;;;542.37;312.60;;;;;;;;;;7350674;19;20403;-22
2024/01/30 15:38:56;;;;;;;543.50;311.07;;;;;;;;;;7327068;19;20399;-30
2024/01/30 15:41:25;;;;;;;548.07;315.63;;;;;;;;;;7350189;19;20411;-24
2024/01/30 15:43:58;;;;;;;530.40;309.33;;;;;;;;;;7327667;19;20380;-26
2024/01/30 15:46:28;;;;;;;527.23;300.80;;;;;;;;;;7350375;19;21005;-25
2024/01/30 15:48:57;;;;;;;527.00;301.60;;;;;;;;;;7328225;19;20419;-23
2024/01/30 15:51:27;;;;;;;530.27;297.03;;;;;;;;;;7350358;19;20414;-26
2024/01/30 15:53:58;;;;;;;531.20;299.37;;;;;;;;;;7326728;19;20387;-26
2024/01/30 15:56:27;;;;;;;514.23;295.73;;;;;;;;;;7350408;19;20454;-24
2024/01/30 15:58:59;;;;;;;518.63;294.43;;;;;;;;;;7324971;19;20399;-24
2024/01/30 16:01:29;;;;;;;517.63;288.87;;;;;;;;;;7350433;19;20998;-24
2024/01/30 16:03:59;;;;;;;515.73;297.10;;;;;;;;;;7327484;19;20446;-23
2024/01/30 16:06:28;;;;;;;506.13;290.67;;;;;;;;;;7348603;19;20434;-23
2024/01/30 16:08:58;;;;;;;508.10;294.73;;;;;;;;;;7327415;19;20830;-26